Time;durP1;ratioP1;P1;durP2;ratioP2;P2;SDS_P1;SDS_P2;PMS_P1;PMS_P2;Temp;Humidity;BMP_temperature;BMP_pressure;BME280_temperature;BME280_humidity;BME280_pressure;Samples;Min_cycle;Max_cycle;Signal;HPM_P1;HPM_P2
2023/01/24 00:02:36;;;;;;;12.77;9.07;;;4.00;99.90;;;;;;5026400;28;20218;-72
2023/01/24 00:05:21;;;;;;;15.35;9.15;;;4.00;99.90;;;;;;5042718;22;20592;-76
2023/01/24 00:08:07;;;;;;;13.48;10.50;;;4.00;99.90;;;;;;5027110;28;20209;-76
2023/01/24 00:11:00;;;;;;;14.90;9.48;;;4.10;99.90;;;;;;5028353;28;20200;-76
2023/01/24 00:13:45;;;;;;;13.25;9.05;;;4.20;99.90;;;;;;5027665;28;20229;-75
2023/01/24 00:16:31;;;;;;;14.80;9.75;;;4.10;99.90;;;;;;5021937;28;21342;-74
2023/01/24 00:19:18;;;;;;;15.85;9.75;;;4.00;99.90;;;;;;5028950;28;20222;-76
2023/01/24 00:22:04;;;;;;;14.27;9.38;;;4.00;99.90;;;;;;5030135;28;20519;-76
2023/01/24 00:24:50;;;;;;;14.70;8.80;;;4.10;99.90;;;;;;5031498;28;20584;-76
2023/01/24 00:27:36;;;;;;;11.27;8.25;;;4.10;99.90;;;;;;5025003;28;20201;-76
2023/01/24 00:30:21;;;;;;;13.98;8.80;;;4.10;99.90;;;;;;5030040;28;20202;-75
2023/01/24 00:33:07;;;;;;;10.02;8.27;;;4.00;99.90;;;;;;5036497;28;20208;-76
2023/01/24 00:35:54;;;;;;;12.00;9.10;;;4.00;99.90;;;;;;5023469;28;20205;-76
2023/01/24 00:38:40;;;;;;;13.90;8.18;;;3.90;99.90;;;;;;5027205;28;20213;-76
2023/01/24 00:41:25;;;;;;;14.93;8.77;;;3.90;99.90;;;;;;5024576;28;20224;-76
2023/01/24 00:44:11;;;;;;;12.30;8.02;;;3.90;99.90;;;;;;5029754;28;20220;-76
2023/01/24 00:46:57;;;;;;;9.68;7.70;;;3.90;99.90;;;;;;5021258;28;20573;-73
2023/01/24 00:49:42;;;;;;;11.57;8.90;;;3.90;99.90;;;;;;5025091;28;20208;-76
2023/01/24 00:52:30;;;;;;;10.18;8.45;;;3.90;99.90;;;;;;5030224;28;20211;-75
2023/01/24 00:55:16;;;;;;;13.48;8.85;;;3.90;99.90;;;;;;5027259;28;20241;-75
2023/01/24 00:58:01;;;;;;;11.05;8.00;;;3.90;99.90;;;;;;5030733;28;20264;-76
2023/01/24 01:00:47;;;;;;;12.88;9.10;;;3.90;99.90;;;;;;5028576;28;20901;-75
2023/01/24 01:03:33;;;;;;;11.00;7.80;;;3.90;99.90;;;;;;5024589;28;20663;-76
2023/01/24 01:06:19;;;;;;;13.20;10.00;;;4.00;99.90;;;;;;5023527;28;20209;-76
2023/01/24 01:09:06;;;;;;;13.45;8.90;;;4.00;99.90;;;;;;5027227;28;20210;-74
2023/01/24 01:11:51;;;;;;;12.57;9.43;;;4.00;99.90;;;;;;5024424;28;20197;-76
2023/01/24 01:14:37;;;;;;;15.10;9.65;;;3.90;99.90;;;;;;5025495;28;20738;-77
2023/01/24 01:17:22;;;;;;;12.02;8.90;;;3.90;99.90;;;;;;5031680;28;20209;-76
2023/01/24 01:20:09;;;;;;;12.23;8.57;;;3.80;99.90;;;;;;5032108;28;20312;-76
2023/01/24 01:22:54;;;;;;;15.05;9.63;;;3.80;99.90;;;;;;5034483;28;20313;-74
2023/01/24 01:25:42;;;;;;;13.23;9.40;;;3.70;99.90;;;;;;5025585;28;20745;-75
2023/01/24 01:28:27;;;;;;;11.85;9.13;;;3.80;99.90;;;;;;5027759;28;20213;-75
2023/01/24 01:31:13;;;;;;;13.27;9.60;;;3.80;99.90;;;;;;5035483;28;20213;-75
2023/01/24 01:33:59;;;;;;;13.07;8.80;;;3.80;99.90;;;;;;5043668;28;20341;-76
2023/01/24 01:36:44;;;;;;;12.23;8.93;;;3.90;99.90;;;;;;5027833;28;20204;-76
2023/01/24 01:39:30;;;;;;;13.00;9.35;;;3.90;99.90;;;;;;5030091;28;20247;-75
2023/01/24 01:42:17;;;;;;;13.50;9.25;;;4.00;99.90;;;;;;5029394;28;20202;-76
2023/01/24 01:45:35;;;;;;;17.25;9.90;;;4.00;99.90;;;;;;5027366;28;20221;-76
2023/01/24 01:48:28;;;;;;;10.80;8.07;;;4.00;99.90;;;;;;5028292;28;20206;-77
2023/01/24 01:51:20;;;;;;;13.25;8.43;;;4.00;99.90;;;;;;5041098;28;20205;-73
2023/01/24 01:54:09;;;;;;;15.10;9.90;;;3.90;99.90;;;;;;5030713;28;20734;-72
2023/01/24 01:57:00;;;;;;;15.00;10.23;;;4.00;99.90;;;;;;5024473;28;20211;-76
2023/01/24 01:59:53;;;;;;;18.23;10.57;;;3.90;99.90;;;;;;5029027;28;20716;-76
2023/01/24 02:02:41;;;;;;;12.60;9.02;;;3.90;99.90;;;;;;5028447;28;20673;-75
2023/01/24 02:05:27;;;;;;;12.93;9.70;;;3.90;99.90;;;;;;5024938;28;20326;-76
2023/01/24 02:08:18;;;;;;;14.68;9.55;;;3.90;99.90;;;;;;5035894;28;20206;-76
2023/01/24 02:17:19;;;;;;;13.85;9.40;;;3.80;99.90;;;;;;5029770;28;20197;-75
2023/01/24 02:20:14;;;;;;;14.73;10.60;;;3.80;99.90;;;;;;5031877;28;20348;-76
2023/01/24 02:23:12;;;;;;;11.80;8.82;;;3.90;99.90;;;;;;5030621;28;20681;-76
2023/01/24 02:26:05;;;;;;;14.45;10.55;;;3.90;99.90;;;;;;5029019;28;20792;-76
2023/01/24 02:28:55;;;;;;;12.73;8.65;;;3.80;99.90;;;;;;5032641;28;20213;-76
2023/01/24 02:31:57;;;;;;;16.27;10.63;;;3.80;99.90;;;;;;5031189;28;20272;-76
2023/01/24 02:34:43;;;;;;;13.35;8.98;;;3.80;99.90;;;;;;5028360;28;20229;-74
2023/01/24 02:37:29;;;;;;;12.95;8.98;;;3.70;99.90;;;;;;5025970;28;20372;-76
2023/01/24 02:40:15;;;;;;;16.00;10.13;;;3.70;99.90;;;;;;5040579;28;20224;-76
2023/01/24 02:43:05;;;;;;;15.32;9.38;;;3.80;99.90;;;;;;5039848;28;20196;-76
2023/01/24 02:45:51;;;;;;;12.07;8.43;;;3.80;99.90;;;;;;5021410;28;20199;-76
2023/01/24 02:48:37;;;;;;;14.18;9.75;;;3.80;99.90;;;;;;5029020;28;20678;-76
2023/01/24 02:54:25;;;;;;;15.00;9.70;;;3.70;99.90;;;;;;5027428;28;21078;-76
2023/01/24 03:00:18;;;;;;;17.42;8.48;;;3.80;99.90;;;;;;5035905;28;20592;-76
2023/01/24 03:03:03;;;;;;;13.75;9.70;;;3.80;99.90;;;;;;5028364;28;20222;-77
2023/01/24 03:05:57;;;;;;;13.80;9.77;;;3.90;99.90;;;;;;5023618;28;20222;-76
2023/01/24 03:08:42;;;;;;;14.85;8.27;;;3.80;99.90;;;;;;5028280;28;20213;-76
2023/01/24 03:11:28;;;;;;;12.10;8.68;;;3.80;99.90;;;;;;5029018;28;20205;-77
2023/01/24 03:35:39;;;;;;;11.75;8.20;;;3.70;99.90;;;;;;5021378;28;20288;-75
2023/01/24 03:41:28;;;;;;;13.27;8.70;;;3.70;99.90;;;;;;5025570;28;20576;-76
2023/01/24 03:44:14;;;;;;;11.60;7.85;;;3.70;99.90;;;;;;5022709;28;20258;-75
2023/01/24 03:46:59;;;;;;;10.65;8.63;;;3.70;99.90;;;;;;5027530;28;20202;-76
2023/01/24 03:52:50;;;;;;;13.07;9.07;;;3.80;99.90;;;;;;5022330;28;20237;-76
2023/01/24 03:55:36;;;;;;;11.10;8.10;;;3.80;99.90;;;;;;5021021;28;20592;-76
2023/01/24 03:58:21;;;;;;;12.43;8.02;;;3.80;99.90;;;;;;5025677;28;20201;-76
2023/01/24 04:01:07;;;;;;;12.70;8.23;;;3.70;99.90;;;;;;5026827;28;20280;-76
2023/01/24 04:03:53;;;;;;;11.70;8.65;;;3.70;99.90;;;;;;5023424;28;20280;-75
2023/01/24 04:06:40;;;;;;;10.32;7.70;;;3.70;99.90;;;;;;5033742;28;20279;-75
2023/01/24 04:09:25;;;;;;;9.05;6.95;;;3.70;99.90;;;;;;5026292;28;20221;-76
2023/01/24 04:12:11;;;;;;;12.45;9.18;;;3.70;99.90;;;;;;5027800;28;20201;-76
2023/01/24 04:14:57;;;;;;;10.75;7.43;;;3.80;99.90;;;;;;5026281;28;20217;-74
2023/01/24 04:17:42;;;;;;;12.55;8.45;;;3.70;99.90;;;;;;5030584;28;20728;-76
2023/01/24 04:20:30;;;;;;;14.55;8.55;;;3.70;99.90;;;;;;5030708;28;20216;-77
2023/01/24 04:23:17;;;;;;;11.48;8.35;;;3.70;99.90;;;;;;5029325;28;20331;-76
2023/01/24 04:26:03;;;;;;;13.98;8.90;;;3.70;99.90;;;;;;5025684;28;20221;-76
2023/01/24 04:28:48;;;;;;;11.63;8.05;;;3.70;99.90;;;;;;5031373;28;20213;-75
2023/01/24 04:31:34;;;;;;;13.05;8.65;;;3.60;99.90;;;;;;5028239;28;20562;-75
2023/01/24 04:34:20;;;;;;;13.32;8.55;;;3.70;99.90;;;;;;5024657;28;20583;-76
2023/01/24 04:37:05;;;;;;;15.23;9.27;;;3.60;99.90;;;;;;5028928;28;20574;-75
2023/01/24 04:39:52;;;;;;;12.15;8.30;;;3.60;99.90;;;;;;5036730;28;20208;-76
2023/01/24 04:42:38;;;;;;;12.27;8.93;;;3.70;99.90;;;;;;5026178;28;20718;-75
2023/01/24 04:45:24;;;;;;;14.95;9.75;;;3.70;99.90;;;;;;5023261;28;22318;-76
2023/01/24 04:48:10;;;;;;;14.57;9.73;;;3.80;99.90;;;;;;5025318;28;20205;-76
2023/01/24 04:50:59;;;;;;;14.80;9.23;;;3.80;99.90;;;;;;5024932;28;20328;-73
2023/01/24 04:53:44;;;;;;;14.23;9.93;;;3.80;99.90;;;;;;5022658;28;20245;-76
2023/01/24 04:56:32;;;;;;;14.18;10.20;;;3.70;99.90;;;;;;5033975;28;20333;-76
2023/01/24 04:59:17;;;;;;;16.30;12.02;;;3.80;99.90;;;;;;5030535;28;20220;-74
2023/01/24 05:02:02;;;;;;;16.60;10.20;;;3.70;99.90;;;;;;5029268;28;22621;-76
2023/01/24 05:04:48;;;;;;;15.85;9.40;;;3.70;99.90;;;;;;5025300;28;20240;-75
2023/01/24 05:07:34;;;;;;;12.95;9.57;;;3.70;99.90;;;;;;5031506;28;20213;-76
2023/01/24 05:10:21;;;;;;;14.57;10.02;;;3.60;99.90;;;;;;5028767;28;20225;-77
2023/01/24 05:13:08;;;;;;;13.95;10.23;;;3.60;99.90;;;;;;5026546;28;20902;-76
2023/01/24 05:15:53;;;;;;;15.88;10.13;;;3.60;99.90;;;;;;5029864;28;20202;-76
2023/01/24 05:18:39;;;;;;;14.02;9.05;;;3.60;99.90;;;;;;5030350;28;21824;-76
2023/01/24 05:21:24;;;;;;;14.02;9.85;;;3.60;99.90;;;;;;5027869;28;20218;-75
2023/01/24 05:24:10;;;;;;;15.75;9.55;;;3.70;99.90;;;;;;5023200;28;20793;-77
2023/01/24 05:26:56;;;;;;;16.25;10.82;;;3.70;99.90;;;;;;5029925;28;20201;-76
2023/01/24 05:29:43;;;;;;;14.00;9.55;;;3.70;99.90;;;;;;5033274;28;20205;-76
2023/01/24 05:32:28;;;;;;;14.18;9.88;;;3.70;99.90;;;;;;5030851;28;20202;-73
2023/01/24 05:35:14;;;;;;;13.45;9.32;;;3.60;99.90;;;;;;5032652;28;20353;-76
2023/01/24 05:38:01;;;;;;;12.55;9.70;;;3.70;99.90;;;;;;5030161;28;20610;-76
2023/01/24 05:40:46;;;;;;;13.38;9.77;;;3.60;99.90;;;;;;5029431;28;20201;-75
2023/01/24 05:43:32;;;;;;;11.75;9.20;;;3.60;99.90;;;;;;5026917;28;20232;-76
2023/01/24 05:46:21;;;;;;;16.40;10.38;;;3.60;99.90;;;;;;5035696;28;20201;-76
2023/01/24 05:49:08;;;;;;;16.40;10.40;;;3.60;99.90;;;;;;5032128;28;20217;-77
2023/01/24 05:51:54;;;;;;;12.63;9.63;;;3.70;99.90;;;;;;5029417;28;20209;-76
2023/01/24 05:54:40;;;;;;;14.50;9.98;;;3.70;99.90;;;;;;5026797;28;20268;-74
2023/01/24 05:57:25;;;;;;;14.95;10.57;;;3.80;99.90;;;;;;5030878;28;20205;-77
2023/01/24 06:00:12;;;;;;;15.68;10.25;;;3.80;99.90;;;;;;5034400;28;20209;-76
2023/01/24 06:03:03;;;;;;;17.30;11.50;;;3.80;99.90;;;;;;5027099;28;20730;-76
2023/01/24 06:05:50;;;;;;;17.40;11.65;;;3.80;99.90;;;;;;5046439;22;20724;-73
2023/01/24 06:08:37;;;;;;;17.48;11.27;;;3.70;99.90;;;;;;5022146;28;20221;-73
2023/01/24 06:11:24;;;;;;;17.23;11.63;;;3.70;99.90;;;;;;5022911;28;20281;-73
2023/01/24 06:14:10;;;;;;;16.25;10.77;;;3.70;99.90;;;;;;5021523;28;20237;-73
2023/01/24 06:16:55;;;;;;;15.88;12.25;;;3.70;99.90;;;;;;5028925;28;20202;-73
2023/01/24 06:19:43;;;;;;;16.67;11.57;;;3.70;99.90;;;;;;5023666;28;20769;-72
2023/01/24 06:22:39;;;;;;;18.40;11.75;;;3.70;99.90;;;;;;5022152;28;22701;-73
2023/01/24 06:25:26;;;;;;;18.35;11.98;;;3.70;99.90;;;;;;5023845;28;20237;-73
2023/01/24 06:28:12;;;;;;;17.38;12.02;;;3.70;99.90;;;;;;5020628;28;20681;-73
2023/01/24 06:31:04;;;;;;;18.67;11.30;;;3.70;99.90;;;;;;5020306;28;20204;-72
2023/01/24 06:34:18;;;;;;;18.90;11.02;;;3.70;99.90;;;;;;5016762;28;20673;-73
2023/01/24 06:37:14;;;;;;;16.63;11.10;;;3.80;99.90;;;;;;5028297;28;20217;-72
2023/01/24 06:40:00;;;;;;;17.17;11.77;;;3.70;99.90;;;;;;5023988;28;20194;-73
2023/01/24 06:42:46;;;;;;;17.95;11.77;;;3.70;99.90;;;;;;5021519;28;20369;-72
2023/01/24 06:45:33;;;;;;;19.10;12.77;;;3.70;99.90;;;;;;5027126;28;20232;-72
2023/01/24 06:48:19;;;;;;;19.80;11.13;;;3.70;99.90;;;;;;5024361;28;20570;-73
2023/01/24 06:51:06;;;;;;;17.92;12.90;;;3.80;99.90;;;;;;5024278;28;20209;-73
2023/01/24 06:53:53;;;;;;;17.42;12.20;;;3.80;99.90;;;;;;5023982;28;20214;-73
2023/01/24 06:56:38;;;;;;;17.95;11.70;;;3.70;99.90;;;;;;5024621;28;20571;-73
2023/01/24 06:59:24;;;;;;;16.65;11.13;;;3.70;99.90;;;;;;5020662;28;20236;-72
2023/01/24 07:02:10;;;;;;;25.17;15.63;;;3.60;99.90;;;;;;5021957;28;20221;-71
2023/01/24 07:04:56;;;;;;;15.60;11.38;;;3.70;99.90;;;;;;5021284;28;20233;-71
2023/01/24 07:07:41;;;;;;;22.05;11.88;;;3.80;99.90;;;;;;5025632;28;20205;-73
2023/01/24 07:10:28;;;;;;;19.77;12.05;;;3.80;99.90;;;;;;5025186;28;20202;-73
2023/01/24 07:13:14;;;;;;;17.05;11.43;;;3.90;99.90;;;;;;5025118;28;20672;-73
2023/01/24 07:16:01;;;;;;;17.73;11.90;;;3.90;99.90;;;;;;5018318;28;20222;-72
2023/01/24 07:18:47;;;;;;;19.33;12.70;;;3.90;99.90;;;;;;5018310;28;20686;-72
2023/01/24 07:21:39;;;;;;;17.23;11.38;;;3.80;99.90;;;;;;5016411;28;20225;-71
2023/01/24 07:24:27;;;;;;;16.27;11.23;;;3.80;99.90;;;;;;5019012;28;20230;-73
2023/01/24 07:27:15;;;;;;;14.93;10.60;;;3.90;99.90;;;;;;5029569;28;20284;-72
2023/01/24 07:30:00;;;;;;;17.33;11.45;;;3.90;99.90;;;;;;5025046;28;20253;-73
2023/01/24 07:32:46;;;;;;;21.42;11.20;;;4.00;99.90;;;;;;5020806;28;20455;-73
2023/01/24 07:35:32;;;;;;;18.10;11.65;;;4.00;99.90;;;;;;5034702;28;20226;-73
2023/01/24 07:38:18;;;;;;;18.95;12.25;;;3.90;99.90;;;;;;5033115;28;20218;-72
2023/01/24 07:41:07;;;;;;;22.35;13.20;;;3.90;99.90;;;;;;5018964;28;20202;-73
2023/01/24 07:43:54;;;;;;;21.70;12.90;;;3.90;99.90;;;;;;5026239;28;20609;-73
2023/01/24 07:46:40;;;;;;;18.33;10.93;;;3.90;99.90;;;;;;5028551;28;20208;-72
2023/01/24 07:49:26;;;;;;;17.45;12.93;;;3.90;99.90;;;;;;5022174;28;20341;-73
2023/01/24 07:52:11;;;;;;;16.80;11.10;;;3.90;99.90;;;;;;5022619;28;20754;-73
2023/01/24 07:54:57;;;;;;;19.05;11.95;;;3.80;99.90;;;;;;5018503;28;20264;-73
2023/01/24 07:57:42;;;;;;;18.33;12.07;;;3.90;99.90;;;;;;5030853;28;20216;-73
2023/01/24 08:00:30;;;;;;;19.60;12.02;;;3.90;99.90;;;;;;5021742;28;20766;-72
2023/01/24 08:03:16;;;;;;;16.52;11.65;;;3.90;99.90;;;;;;5034008;28;20364;-74
2023/01/24 08:06:04;;;;;;;17.55;11.88;;;4.00;99.90;;;;;;5040827;28;20236;-73
2023/01/24 08:08:50;;;;;;;18.67;11.85;;;4.00;99.90;;;;;;5042698;28;20224;-73
2023/01/24 08:11:35;;;;;;;17.58;12.43;;;4.00;99.90;;;;;;5018352;28;20696;-72
2023/01/24 08:14:22;;;;;;;20.65;12.68;;;3.90;99.90;;;;;;5038354;28;20701;-70
2023/01/24 08:17:09;;;;;;;15.70;12.60;;;4.00;99.90;;;;;;5034569;28;20330;-72
2023/01/24 08:19:54;;;;;;;18.33;12.10;;;4.00;99.90;;;;;;5025973;28;20197;-71
2023/01/24 08:22:40;;;;;;;21.17;12.50;;;4.00;99.90;;;;;;5017988;28;20221;-72
2023/01/24 08:25:26;;;;;;;19.45;12.07;;;3.90;99.90;;;;;;5020766;28;20588;-72
2023/01/24 08:28:12;;;;;;;19.33;13.90;;;3.90;99.90;;;;;;5027721;28;20209;-71
2023/01/24 08:30:58;;;;;;;21.50;13.60;;;4.00;99.90;;;;;;5022954;28;20328;-71
2023/01/24 08:33:45;;;;;;;18.58;10.52;;;4.00;99.90;;;;;;5029344;28;20202;-72
2023/01/24 08:36:30;;;;;;;17.05;11.57;;;4.00;99.90;;;;;;5026105;28;20218;-71
2023/01/24 08:39:16;;;;;;;17.65;11.70;;;4.00;99.90;;;;;;5041512;28;20300;-71
2023/01/24 08:42:01;;;;;;;18.02;12.43;;;4.00;99.90;;;;;;5023372;28;20228;-72
2023/01/24 08:44:47;;;;;;;22.70;12.45;;;4.00;99.90;;;;;;5027535;28;20230;-72
2023/01/24 08:47:33;;;;;;;17.77;12.00;;;4.00;99.90;;;;;;5033562;28;20243;-72
2023/01/24 08:50:20;;;;;;;17.80;11.40;;;3.90;99.90;;;;;;5041035;28;20209;-72
2023/01/24 08:53:05;;;;;;;22.52;13.07;;;4.00;99.90;;;;;;5039739;28;20687;-72
2023/01/24 08:55:51;;;;;;;16.63;12.00;;;4.00;99.90;;;;;;5024411;28;20228;-71
2023/01/24 08:58:37;;;;;;;23.00;13.30;;;4.00;99.90;;;;;;5033063;28;20213;-71
2023/01/24 09:01:22;;;;;;;23.08;14.00;;;3.90;99.90;;;;;;5038806;28;20208;-72
2023/01/24 09:04:09;;;;;;;17.05;11.80;;;3.90;99.90;;;;;;5016114;28;20261;-72
2023/01/24 09:06:56;;;;;;;20.33;10.35;;;4.00;99.90;;;;;;5028706;28;20206;-73
2023/01/24 09:09:42;;;;;;;19.58;12.07;;;4.10;99.90;;;;;;5045617;28;20209;-73
2023/01/24 09:12:27;;;;;;;21.95;13.00;;;4.10;99.90;;;;;;5033524;28;20385;-73
2023/01/24 09:15:13;;;;;;;18.35;11.50;;;4.10;99.90;;;;;;5024377;28;20230;-72
2023/01/24 09:18:01;;;;;;;21.08;11.32;;;4.00;99.90;;;;;;5042108;28;20336;-72
2023/01/24 09:20:48;;;;;;;21.27;12.30;;;4.00;99.90;;;;;;5033229;28;20201;-73
2023/01/24 09:23:35;;;;;;;17.92;10.93;;;4.10;99.90;;;;;;5032272;28;20221;-73
2023/01/24 09:26:20;;;;;;;20.05;12.85;;;4.10;99.90;;;;;;5038807;28;20200;-73
2023/01/24 09:29:06;;;;;;;16.55;10.68;;;4.10;99.90;;;;;;5041217;28;20336;-73
2023/01/24 09:31:54;;;;;;;17.20;11.68;;;4.10;99.90;;;;;;5041218;28;20212;-72
2023/01/24 09:34:46;;;;;;;18.63;13.13;;;4.00;99.90;;;;;;5023317;28;20224;-73
2023/01/24 09:37:31;;;;;;;20.40;12.48;;;4.10;99.90;;;;;;5038617;28;20213;-72
2023/01/24 09:40:22;;;;;;;16.00;11.13;;;4.10;99.90;;;;;;5044979;28;20204;-72
2023/01/24 09:43:16;;;;;;;18.33;10.90;;;4.20;99.90;;;;;;5041948;28;20221;-72
2023/01/24 09:46:10;;;;;;;21.40;12.95;;;4.10;99.90;;;;;;5039759;28;20229;-72
2023/01/24 09:49:06;;;;;;;20.27;13.20;;;4.10;99.90;;;;;;5047119;28;20578;-71
2023/01/24 09:51:53;;;;;;;21.98;14.55;;;4.20;99.90;;;;;;5034459;28;20291;-71
2023/01/24 09:54:49;;;;;;;20.48;13.75;;;4.10;99.90;;;;;;5026416;28;20229;-73
2023/01/24 09:57:49;;;;;;;17.75;12.50;;;4.10;99.90;;;;;;5040567;28;20309;-72
2023/01/24 10:00:38;;;;;;;17.35;10.73;;;4.10;99.90;;;;;;5035544;28;20205;-73
2023/01/24 10:03:25;;;;;;;16.02;11.30;;;4.00;99.90;;;;;;5022469;28;20431;-73
2023/01/24 10:06:16;;;;;;;18.10;10.80;;;4.10;99.90;;;;;;5036924;28;20217;-73
2023/01/24 10:09:12;;;;;;;16.05;11.25;;;4.10;99.90;;;;;;5053718;28;20507;-73
2023/01/24 10:12:06;;;;;;;19.67;11.73;;;4.10;99.90;;;;;;5045515;28;20205;-73
2023/01/24 10:15:09;;;;;;;18.73;12.15;;;4.10;99.90;;;;;;5030711;28;20229;-72
2023/01/24 10:18:17;;;;;;;18.80;11.82;;;4.00;99.90;;;;;;5038687;28;20213;-72
2023/01/24 10:21:20;;;;;;;19.02;12.32;;;4.10;99.90;;;;;;5039307;28;20569;-74
2023/01/24 10:24:12;;;;;;;20.13;12.20;;;4.10;99.90;;;;;;5025225;28;20233;-72
2023/01/24 10:26:57;;;;;;;18.85;11.93;;;4.20;99.90;;;;;;5034516;28;20240;-73
2023/01/24 10:29:44;;;;;;;18.63;12.27;;;4.20;99.90;;;;;;5044470;28;20697;-73
2023/01/24 10:32:35;;;;;;;14.40;10.68;;;4.20;99.90;;;;;;5032510;28;20197;-73
2023/01/24 10:35:26;;;;;;;16.08;10.70;;;4.20;99.90;;;;;;5034661;28;20267;-73
2023/01/24 10:38:15;;;;;;;18.35;12.20;;;4.10;99.90;;;;;;5044050;28;20201;-72
2023/01/24 10:41:15;;;;;;;18.70;12.40;;;4.10;99.90;;;;;;5049370;28;20347;-73
2023/01/24 10:44:04;;;;;;;13.35;9.90;;;4.00;99.90;;;;;;5025647;28;20723;-73
2023/01/24 10:47:21;;;;;;;19.25;11.52;;;4.10;99.90;;;;;;5039693;28;20208;-72
2023/01/24 10:50:10;;;;;;;18.48;11.55;;;4.10;99.90;;;;;;5032938;28;20417;-73
2023/01/24 10:53:14;;;;;;;17.95;11.23;;;4.20;99.90;;;;;;5040946;28;20329;-73
2023/01/24 10:56:01;;;;;;;16.50;11.32;;;4.10;99.90;;;;;;5039060;28;20305;-73
2023/01/24 10:58:57;;;;;;;17.23;12.45;;;4.20;99.90;;;;;;5044293;28;20212;-73
2023/01/24 11:01:46;;;;;;;19.25;12.30;;;4.20;99.90;;;;;;5045040;28;20297;-72
2023/01/24 11:04:34;;;;;;;19.00;11.82;;;4.30;99.90;;;;;;5028866;28;20232;-72
2023/01/24 11:07:32;;;;;;;18.60;12.63;;;4.30;99.90;;;;;;5049721;28;20690;-73
2023/01/24 11:10:23;;;;;;;18.65;12.18;;;4.30;99.90;;;;;;5045045;28;20201;-73
2023/01/24 11:13:27;;;;;;;19.52;12.48;;;4.30;99.90;;;;;;5037918;28;20209;-71
2023/01/24 11:16:22;;;;;;;18.88;12.27;;;4.30;99.90;;;;;;5041062;28;20287;-71
2023/01/24 11:19:23;;;;;;;24.20;14.43;;;4.30;99.90;;;;;;5038761;28;20200;-73
2023/01/24 11:22:22;;;;;;;21.17;12.52;;;4.30;99.90;;;;;;5043348;28;20209;-70
2023/01/24 11:25:15;;;;;;;18.65;11.60;;;4.20;99.90;;;;;;5046454;28;20220;-73
2023/01/24 11:28:01;;;;;;;15.82;11.15;;;4.30;99.90;;;;;;5048584;28;20344;-73
2023/01/24 11:30:46;;;;;;;20.13;11.98;;;4.30;99.90;;;;;;5037348;28;20662;-73
2023/01/24 11:33:57;;;;;;;17.00;11.20;;;4.30;99.90;;;;;;5024900;28;20196;-73
2023/01/24 11:36:48;;;;;;;14.75;10.38;;;4.30;99.90;;;;;;5034795;28;20205;-73
2023/01/24 11:39:41;;;;;;;17.15;10.75;;;4.40;99.90;;;;;;5036341;28;20213;-72
2023/01/24 11:42:36;;;;;;;19.50;11.00;;;4.30;99.90;;;;;;5025667;28;20291;-71
2023/01/24 11:45:32;;;;;;;19.30;12.02;;;4.20;99.90;;;;;;5040960;28;20779;-73
2023/01/24 11:48:20;;;;;;;18.65;12.25;;;4.20;99.90;;;;;;5037150;28;20204;-73
2023/01/24 11:51:12;;;;;;;18.65;11.13;;;4.20;99.90;;;;;;5040670;28;20210;-73
2023/01/24 11:54:34;;;;;;;16.17;10.75;;;4.20;99.90;;;;;;5028254;28;20206;-73
2023/01/24 11:57:33;;;;;;;17.58;10.77;;;4.10;99.90;;;;;;5051435;28;20208;-72
2023/01/24 12:00:36;;;;;;;19.63;11.95;;;4.10;99.90;;;;;;5047835;28;20221;-72
2023/01/24 12:03:41;;;;;;;16.20;10.70;;;4.20;99.90;;;;;;5039216;28;20216;-73
2023/01/24 12:06:36;;;;;;;16.10;10.35;;;4.20;99.90;;;;;;5029275;28;20209;-72
2023/01/24 12:09:24;;;;;;;16.23;11.10;;;4.20;99.90;;;;;;5038174;28;20343;-73
2023/01/24 12:12:17;;;;;;;15.40;9.57;;;4.30;99.90;;;;;;5026195;28;20341;-73
2023/01/24 12:15:32;;;;;;;14.98;10.50;;;4.30;99.90;;;;;;5039942;28;20236;-73
2023/01/24 12:18:40;;;;;;;14.55;9.68;;;4.30;99.90;;;;;;5039007;28;20210;-73
2023/01/24 12:21:26;;;;;;;14.32;9.38;;;4.30;99.90;;;;;;5030730;28;20221;-72
2023/01/24 12:24:17;;;;;;;12.02;8.88;;;4.30;99.90;;;;;;5045648;28;20587;-73
2023/01/24 12:27:11;;;;;;;11.82;8.45;;;4.30;99.90;;;;;;5040799;28;20271;-73
2023/01/24 12:30:00;;;;;;;14.95;9.45;;;4.30;99.90;;;;;;5039531;28;20442;-72
2023/01/24 12:32:53;;;;;;;15.98;10.57;;;4.40;99.90;;;;;;5035114;28;20283;-73
2023/01/24 12:35:44;;;;;;;17.35;9.43;;;4.40;99.90;;;;;;5026598;28;20306;-73
2023/01/24 12:38:36;;;;;;;12.20;8.32;;;4.30;99.90;;;;;;5042600;28;20753;-73
2023/01/24 12:41:30;;;;;;;11.32;7.93;;;4.30;99.90;;;;;;5037658;28;20572;-73
2023/01/24 12:44:30;;;;;;;13.88;9.32;;;4.30;99.90;;;;;;5032816;28;20232;-72
2023/01/24 12:47:25;;;;;;;12.63;8.65;;;4.30;99.90;;;;;;5043297;28;20276;-73
2023/01/24 12:50:21;;;;;;;13.85;8.93;;;4.30;99.90;;;;;;5039429;28;20694;-73
2023/01/24 12:53:15;;;;;;;12.38;8.65;;;4.30;99.90;;;;;;5028540;28;20201;-72
2023/01/24 12:56:06;;;;;;;12.32;8.85;;;4.30;99.90;;;;;;5012834;28;20600;-72
2023/01/24 12:58:55;;;;;;;10.63;8.48;;;4.30;99.90;;;;;;5022954;28;20222;-71
2023/01/24 13:02:22;;;;;;;11.73;8.70;;;4.30;99.90;;;;;;5020227;28;20224;-73
2023/01/24 13:05:24;;;;;;;12.48;8.52;;;4.40;99.90;;;;;;5018419;28;20232;-72
2023/01/24 13:08:22;;;;;;;13.52;8.90;;;4.40;99.90;;;;;;5034563;28;20686;-73
2023/01/24 13:11:18;;;;;;;12.35;7.65;;;4.30;99.90;;;;;;5021419;28;20207;-73
2023/01/24 13:14:12;;;;;;;12.07;8.88;;;4.30;99.90;;;;;;5022906;28;20252;-73
2023/01/24 13:17:20;;;;;;;14.07;8.93;;;4.20;99.90;;;;;;5034347;28;20335;-72
2023/01/24 13:20:21;;;;;;;13.35;8.90;;;4.20;99.90;;;;;;5041155;28;20206;-73
2023/01/24 13:23:30;;;;;;;10.70;7.65;;;4.20;99.90;;;;;;5045093;28;20208;-73
2023/01/24 13:26:57;;;;;;;11.00;8.68;;;4.20;99.90;;;;;;5033192;28;20663;-71
2023/01/24 13:30:04;;;;;;;13.60;8.98;;;4.20;99.90;;;;;;5025452;28;20291;-73
2023/01/24 13:32:51;;;;;;;13.80;9.07;;;4.20;99.90;;;;;;5044965;28;20200;-73
2023/01/24 13:35:48;;;;;;;14.00;8.60;;;4.20;99.90;;;;;;5037643;28;20288;-73
2023/01/24 13:38:42;;;;;;;11.73;8.68;;;4.10;99.90;;;;;;5042936;28;20724;-73
2023/01/24 13:41:37;;;;;;;12.55;9.20;;;4.10;99.90;;;;;;5040094;28;20197;-73
2023/01/24 13:44:29;;;;;;;17.48;9.43;;;4.10;99.90;;;;;;5031770;28;20298;-73
2023/01/24 13:47:26;;;;;;;17.92;9.77;;;4.20;99.90;;;;;;5036314;28;20217;-73
2023/01/24 13:50:22;;;;;;;13.65;9.63;;;4.20;99.90;;;;;;5037606;28;20206;-72
2023/01/24 13:53:09;;;;;;;16.20;10.55;;;4.20;99.90;;;;;;5031138;28;20252;-73
2023/01/24 13:56:04;;;;;;;12.50;9.60;;;4.20;99.90;;;;;;5040672;28;20241;-73
2023/01/24 13:58:53;;;;;;;13.27;8.35;;;4.10;99.90;;;;;;5024908;28;20234;-73
2023/01/24 14:01:46;;;;;;;20.50;10.50;;;4.20;99.90;;;;;;5026788;28;20283;-72
2023/01/24 14:04:40;;;;;;;14.60;9.80;;;4.20;99.90;;;;;;5030776;28;20276;-73
2023/01/24 14:07:29;;;;;;;14.93;11.00;;;4.20;99.90;;;;;;5026534;28;20205;-71
2023/01/24 14:10:16;;;;;;;14.63;10.55;;;4.30;99.90;;;;;;5033069;28;20237;-72
2023/01/24 14:13:02;;;;;;;16.02;8.77;;;4.20;99.90;;;;;;5024691;28;20686;-73
2023/01/24 14:15:47;;;;;;;14.27;10.02;;;4.20;99.90;;;;;;5028056;28;20229;-73
2023/01/24 14:18:49;;;;;;;14.80;10.20;;;4.20;99.90;;;;;;5029896;28;20280;-72
2023/01/24 14:21:48;;;;;;;15.27;10.23;;;4.20;99.90;;;;;;5025370;28;20201;-72
2023/01/24 14:24:36;;;;;;;14.10;9.85;;;4.30;99.90;;;;;;5026218;28;20293;-73
2023/01/24 14:27:28;;;;;;;18.20;10.68;;;4.20;99.90;;;;;;5023089;28;20213;-73
2023/01/24 14:30:32;;;;;;;13.60;9.70;;;4.20;99.90;;;;;;5028544;28;20324;-72
2023/01/24 14:33:27;;;;;;;18.10;10.68;;;4.20;99.90;;;;;;5025102;28;20427;-72
2023/01/24 14:36:28;;;;;;;16.92;10.80;;;4.20;99.90;;;;;;5024024;28;20207;-69
2023/01/24 14:39:21;;;;;;;17.77;12.13;;;4.10;99.90;;;;;;5024949;28;20421;-71
2023/01/24 14:42:12;;;;;;;15.13;11.30;;;4.10;99.90;;;;;;5030325;28;20206;-73
2023/01/24 14:44:59;;;;;;;18.75;11.70;;;4.10;99.90;;;;;;5040003;28;20232;-72
2023/01/24 14:47:48;;;;;;;16.35;10.95;;;4.00;99.90;;;;;;5043948;28;20676;-73
2023/01/24 14:50:37;;;;;;;26.67;14.13;;;4.00;99.90;;;;;;5037378;28;20615;-73
2023/01/24 14:53:24;;;;;;;35.80;16.88;;;4.00;99.90;;;;;;5033219;28;20197;-73
2023/01/24 14:56:13;;;;;;;18.92;12.10;;;4.00;99.90;;;;;;5023334;28;20221;-73
2023/01/24 14:59:11;;;;;;;17.52;12.57;;;3.90;99.90;;;;;;5036410;28;20205;-73
2023/01/24 15:01:58;;;;;;;18.17;11.82;;;3.90;99.90;;;;;;5024199;28;20305;-73
2023/01/24 15:04:47;;;;;;;19.08;13.10;;;3.90;99.90;;;;;;5028791;28;20367;-73
2023/01/24 15:07:33;;;;;;;18.83;12.38;;;3.90;99.90;;;;;;5027074;28;20671;-72
2023/01/24 15:10:23;;;;;;;19.88;12.90;;;3.80;99.90;;;;;;5031737;28;20205;-72
2023/01/24 15:13:11;;;;;;;18.42;12.52;;;3.90;99.90;;;;;;5028322;28;20208;-71
2023/01/24 15:15:57;;;;;;;24.17;13.23;;;3.90;99.90;;;;;;5026825;28;20230;-72
2023/01/24 15:18:46;;;;;;;21.75;12.50;;;4.00;99.90;;;;;;5030056;28;20206;-73